createdAt,value
2019-05-11T00:00:32.510Z,73.28
2019-05-11T00:06:38.250Z,73.30
2019-05-11T00:12:44.343Z,73.53
2019-05-11T00:18:50.960Z,73.64
2019-05-11T00:24:56.918Z,73.55
2019-05-11T00:31:02.765Z,73.74
2019-05-11T00:37:08.601Z,73.81
2019-05-11T00:43:14.391Z,73.77
2019-05-11T00:49:20.151Z,73.65
2019-05-11T00:55:26.281Z,73.41
2019-05-11T01:01:34.682Z,73.24
2019-05-11T01:07:40.478Z,73.24
2019-05-11T01:13:46.248Z,73.21
2019-05-11T01:19:51.955Z,73.11
2019-05-11T01:25:57.694Z,73.07
2019-05-11T01:32:05.596Z,73.15
2019-05-11T01:38:11.265Z,73.44
2019-05-11T01:44:16.994Z,73.16
2019-05-11T01:50:25.220Z,73.28
2019-05-11T01:56:30.949Z,73.24
2019-05-11T02:02:36.772Z,72.98
2019-05-11T02:08:42.632Z,73.09
2019-05-11T02:14:48.434Z,73.32
2019-05-11T02:20:54.259Z,73.02
2019-05-11T02:27:00.075Z,73.25
2019-05-11T02:33:06.427Z,73.77
2019-05-11T02:39:12.391Z,73.66
2019-05-11T02:45:31.191Z,73.50
2019-05-11T02:51:38.006Z,73.66
2019-05-11T02:57:43.745Z,73.50
2019-05-11T03:03:49.542Z,73.50
2019-05-11T03:09:55.492Z,73.48
2019-05-11T03:16:01.264Z,73.53
2019-05-11T03:22:07.231Z,73.73
2019-05-11T03:28:13.587Z,73.66
2019-05-11T03:34:19.402Z,73.58
2019-05-11T03:40:25.151Z,73.62
2019-05-11T03:46:30.961Z,73.88
2019-05-11T03:52:36.707Z,73.76
2019-05-11T03:58:42.443Z,73.84
2019-05-11T04:04:48.197Z,74.05
2019-05-11T04:10:54.071Z,74.04
2019-05-11T04:17:00.561Z,74.08
2019-05-11T04:23:06.264Z,74.33
2019-05-11T04:29:12.455Z,74.39
2019-05-11T04:35:18.425Z,74.63
2019-05-11T04:41:24.256Z,74.49
2019-05-11T04:47:30.056Z,74.22
2019-05-11T04:53:35.810Z,73.90
2019-05-11T04:59:42.614Z,73.99
2019-05-11T05:05:48.424Z,74.23
2019-05-11T05:11:55.700Z,74.27
2019-05-11T05:18:01.726Z,73.68
2019-05-11T05:24:07.580Z,73.33
2019-05-11T05:30:14.083Z,73.25
2019-05-11T05:36:20.063Z,73.13
2019-05-11T05:42:25.830Z,73.07
2019-05-11T05:48:32.174Z,72.72
2019-05-11T05:54:38.106Z,72.68
2019-05-11T06:00:44.699Z,72.55
2019-05-11T06:06:51.045Z,72.50
2019-05-11T06:12:57.288Z,72.53
2019-05-11T06:19:03.206Z,72.61
2019-05-11T06:25:09.750Z,72.35
2019-05-11T06:31:15.917Z,71.66
2019-05-11T06:37:21.746Z,71.48
2019-05-11T06:43:27.995Z,71.08
2019-05-11T06:49:34.051Z,70.79
2019-05-11T06:55:40.099Z,70.95
2019-05-11T07:01:45.976Z,70.90
2019-05-11T07:07:51.719Z,70.98
2019-05-11T07:13:57.549Z,71.01
2019-05-11T07:20:05.124Z,70.25
2019-05-11T07:26:11.012Z,70.23
2019-05-11T07:32:25.064Z,69.93
2019-05-11T07:38:24.626Z,69.67
2019-05-11T07:44:37.824Z,69.54
2019-05-11T07:50:38.751Z,69.51
2019-05-11T07:56:45.080Z,68.76
2019-05-11T08:02:51.361Z,68.59
2019-05-11T08:08:58.861Z,68.15
2019-05-11T08:15:12.419Z,67.50
2019-05-11T08:21:14.405Z,66.96
2019-05-11T08:27:20.386Z,67.15
2019-05-11T08:33:28.195Z,67.55
2019-05-11T08:39:33.632Z,66.72
2019-05-11T08:45:39.931Z,65.67
2019-05-11T08:51:47.803Z,65.78
2019-05-11T08:57:53.567Z,65.53
2019-05-11T09:03:59.481Z,64.22
2019-05-11T09:10:07.992Z,64.49
2019-05-11T09:16:15.744Z,63.58
2019-05-11T09:22:21.066Z,63.80
2019-05-11T09:28:29.508Z,63.36
2019-05-11T09:34:34.951Z,62.76
2019-05-11T09:40:41.212Z,62.47
2019-05-11T09:46:48.713Z,61.23
2019-05-11T09:52:54.805Z,60.01
2019-05-11T09:59:00.594Z,58.35
2019-05-11T10:05:08.657Z,57.60
2019-05-11T10:11:14.493Z,56.95
2019-05-11T10:17:20.844Z,56.20
2019-05-11T10:23:27.871Z,55.02
2019-05-11T10:29:34.339Z,55.16
2019-05-11T10:35:40.233Z,53.89
2019-05-11T10:41:48.024Z,53.62
2019-05-11T10:47:57.293Z,53.66
2019-05-11T10:54:01.144Z,53.39
2019-05-11T11:00:09.970Z,52.82
2019-05-11T11:06:15.792Z,52.96
2019-05-11T11:12:21.630Z,52.39
2019-05-11T11:18:28.808Z,51.97
2019-05-11T11:24:34.847Z,53.16
2019-05-11T11:30:41.085Z,51.80
2019-05-11T11:36:48.179Z,50.32
2019-05-11T11:42:58.098Z,49.62
2019-05-11T11:49:03.728Z,49.52
2019-05-11T11:55:11.202Z,50.18
2019-05-11T12:01:18.885Z,50.02
2019-05-11T12:07:24.792Z,49.36
2019-05-11T12:13:30.681Z,49.94
2019-05-11T12:19:38.513Z,48.66
2019-05-11T12:25:44.520Z,47.64
2019-05-11T12:31:50.551Z,48.59
2019-05-11T12:37:58.509Z,47.94
2019-05-11T12:44:03.949Z,48.01
2019-05-11T12:50:10.802Z,48.53
2019-05-11T12:56:18.881Z,47.73
2019-05-11T13:02:24.167Z,48.30
2019-05-11T13:08:29.995Z,48.01
2019-05-11T13:14:38.011Z,48.37
2019-05-11T13:20:43.447Z,48.24
2019-05-11T13:26:49.343Z,46.08
2019-05-11T13:32:55.047Z,45.34
2019-05-11T13:39:00.933Z,45.55
2019-05-11T13:45:09.828Z,45.63
2019-05-11T13:51:17.959Z,45.07
2019-05-11T13:57:23.120Z,44.40
2019-05-11T14:03:29.086Z,44.93
2019-05-11T14:09:34.955Z,45.95
2019-05-11T14:15:40.746Z,45.21
2019-05-11T14:21:48.915Z,44.30
2019-05-11T14:27:54.307Z,44.47
2019-05-11T14:34:01.418Z,43.57
2019-05-11T14:40:08.809Z,43.34
2019-05-11T14:46:14.927Z,46.18
2019-05-11T14:52:20.840Z,47.65
2019-05-11T14:58:28.067Z,46.22
2019-05-11T15:04:34.117Z,44.15
2019-05-11T15:10:40.318Z,43.44
2019-05-11T15:16:48.527Z,46.16
2019-05-11T15:22:55.081Z,46.16
2019-05-11T15:29:01.146Z,45.83
2019-05-11T15:35:08.090Z,45.28
2019-05-11T15:41:13.980Z,45.50
2019-05-11T15:47:19.765Z,45.67
2019-05-11T15:53:25.598Z,45.41
2019-05-11T15:59:31.376Z,45.26
2019-05-11T16:05:37.334Z,45.69
2019-05-11T16:11:43.102Z,43.75
2019-05-11T16:17:49.280Z,39.12
2019-05-11T16:23:55.030Z,36.34
2019-05-11T16:30:00.830Z,36.35
2019-05-11T16:36:09.124Z,36.15
2019-05-11T16:42:14.158Z,36.61
2019-05-11T16:48:20.044Z,37.55
2019-05-11T16:54:28.016Z,36.47
2019-05-11T17:00:33.823Z,35.97
2019-05-11T17:06:40.289Z,35.60
2019-05-11T17:12:48.344Z,36.04
2019-05-11T17:18:53.991Z,36.02
2019-05-11T17:25:00.495Z,35.89
2019-05-11T17:31:08.051Z,36.41
2019-05-11T17:37:14.660Z,36.29
2019-05-11T17:43:21.475Z,36.02
2019-05-11T17:49:27.707Z,36.56
2019-05-11T17:55:33.697Z,36.55
2019-05-11T18:01:39.787Z,36.99
2019-05-11T18:07:46.121Z,37.59
2019-05-11T18:13:52.113Z,38.62
2019-05-11T18:20:12.628Z,38.38
2019-05-11T18:26:05.696Z,38.81
2019-05-11T18:32:11.636Z,39.22
2019-05-11T18:38:17.930Z,39.56
2019-05-11T18:44:24.029Z,39.36
2019-05-11T18:50:31.330Z,39.40
2019-05-11T18:56:38.285Z,39.87
2019-05-11T19:02:45.281Z,39.98
2019-05-11T19:08:51.179Z,40.49
2019-05-11T19:14:58.771Z,41.03
2019-05-11T19:21:04.972Z,41.51
2019-05-11T19:27:10.823Z,42.10
2019-05-11T19:33:24.753Z,42.20
2019-05-11T19:39:30.545Z,42.80
2019-05-11T19:45:38.417Z,43.28
2019-05-11T19:51:44.300Z,43.75
2019-05-11T19:57:50.040Z,43.95
2019-05-11T20:03:56.344Z,44.60
2019-05-11T20:10:02.459Z,44.26
2019-05-11T20:16:08.454Z,44.45
2019-05-11T20:22:14.797Z,44.54
2019-05-11T20:28:20.622Z,44.86
2019-05-11T20:34:28.851Z,45.22
2019-05-11T20:40:34.224Z,45.67
2019-05-11T20:46:41.684Z,46.04
2019-05-11T20:52:48.136Z,46.32
2019-05-11T20:58:59.552Z,46.89
2019-05-11T21:05:05.382Z,47.26
2019-05-11T21:11:13.040Z,47.55
2019-05-11T21:17:18.846Z,47.92
2019-05-11T21:23:24.577Z,48.48
2019-05-11T21:29:31.351Z,48.89
2019-05-11T21:35:38.562Z,49.21
2019-05-11T21:41:44.537Z,49.93
2019-05-11T21:47:50.450Z,50.30
2019-05-11T21:53:57.823Z,50.68
2019-05-11T22:00:05.326Z,51.15
2019-05-11T22:06:11.133Z,51.32
2019-05-11T22:12:18.732Z,51.64
2019-05-11T22:18:30.982Z,51.96
2019-05-11T22:24:32.631Z,52.14
2019-05-11T22:30:39.260Z,52.69
2019-05-11T22:36:47.851Z,52.94
2019-05-11T22:42:53.051Z,53.22
2019-05-11T22:48:58.986Z,53.33
2019-05-11T22:55:04.823Z,53.73
2019-05-11T23:01:10.691Z,54.20
2019-05-11T23:07:18.509Z,54.41
2019-05-11T23:13:24.267Z,54.83
2019-05-11T23:19:30.543Z,55.21
2019-05-11T23:25:36.323Z,55.27
2019-05-11T23:31:42.227Z,55.48
2019-05-11T23:37:49.489Z,55.79
2019-05-11T23:43:58.210Z,56.30
2019-05-11T23:50:03.850Z,56.55
2019-05-11T23:56:09.699Z,56.94
